createdAt,value
2018-03-01T00:00:10.027Z,16.13
2018-03-01T00:02:37.608Z,16.77
2018-03-01T00:05:05.166Z,16.23
2018-03-01T00:07:32.755Z,17.37
2018-03-01T00:10:01.125Z,17.57
2018-03-01T00:12:29.436Z,16.97
2018-03-01T00:14:57.015Z,17.70
2018-03-01T00:17:24.569Z,17.90
2018-03-01T00:19:52.151Z,16.00
2018-03-01T00:22:40.533Z,17.50
2018-03-01T00:25:08.866Z,16.77
2018-03-01T00:27:36.511Z,17.30
2018-03-01T00:30:04.078Z,17.80
2018-03-01T00:32:31.647Z,17.50
2018-03-01T00:34:59.292Z,16.77
2018-03-01T00:37:26.864Z,17.27
2018-03-01T00:39:54.421Z,14.80
2018-03-01T00:42:21.991Z,17.13
2018-03-01T00:44:49.545Z,17.07
2018-03-01T00:47:17.197Z,15.67
2018-03-01T00:49:44.722Z,16.87
2018-03-01T00:52:12.272Z,17.83
2018-03-01T00:54:39.849Z,18.03
2018-03-01T00:57:07.434Z,16.47
2018-03-01T00:59:35.788Z,17.63
2018-03-01T01:02:04.099Z,16.07
2018-03-01T01:04:31.675Z,16.57
2018-03-01T01:06:59.223Z,16.87
2018-03-01T01:09:26.769Z,16.47
2018-03-01T01:11:54.338Z,17.80
2018-03-01T01:14:21.863Z,16.53
2018-03-01T01:16:49.454Z,16.07
2018-03-01T01:19:17.791Z,17.30
2018-03-01T01:21:45.389Z,16.73
2018-03-01T01:24:12.975Z,17.20
2018-03-01T01:26:40.569Z,16.77
2018-03-01T01:29:08.136Z,16.10
2018-03-01T01:31:35.668Z,16.37
2018-03-01T01:34:03.289Z,16.33
2018-03-01T01:36:30.917Z,17.57
2018-03-01T01:38:58.517Z,17.87
2018-03-01T01:41:26.069Z,16.33
2018-03-01T01:43:53.624Z,17.17
2018-03-01T01:46:21.186Z,16.97
2018-03-01T01:48:48.763Z,16.73
2018-03-01T01:51:16.329Z,16.13
2018-03-01T01:53:43.872Z,15.60
2018-03-01T01:56:11.439Z,16.03
2018-03-01T01:58:38.978Z,16.20
2018-03-01T02:01:06.630Z,16.80
2018-03-01T02:03:34.177Z,16.50
2018-03-01T02:06:01.772Z,15.90
2018-03-01T02:08:29.333Z,15.37
2018-03-01T02:10:56.881Z,16.70
2018-03-01T02:13:24.437Z,17.23
2018-03-01T02:15:51.975Z,16.53
2018-03-01T02:18:19.620Z,16.03
2018-03-01T02:20:47.282Z,16.37
2018-03-01T02:23:14.843Z,16.20
2018-03-01T02:25:43.181Z,17.10
2018-03-01T02:28:10.731Z,17.20
2018-03-01T02:30:38.314Z,15.80
2018-03-01T02:33:05.900Z,17.87
2018-03-01T02:35:34.227Z,17.47
2018-03-01T02:38:01.777Z,16.90
2018-03-01T02:40:29.315Z,17.83
2018-03-01T02:42:57.306Z,17.67
2018-03-01T02:45:24.840Z,16.53
2018-03-01T02:47:52.389Z,16.30
2018-03-01T02:50:19.938Z,17.03
2018-03-01T02:52:48.241Z,17.43
2018-03-01T02:55:15.795Z,16.77
2018-03-01T02:57:43.419Z,18.53
2018-03-01T03:00:11.147Z,17.57
2018-03-01T03:02:38.711Z,18.07
2018-03-01T03:05:06.265Z,16.63
2018-03-01T03:07:33.843Z,16.97
2018-03-01T03:10:01.808Z,17.10
2018-03-01T03:12:29.344Z,17.77
2018-03-01T03:14:56.911Z,17.50
2018-03-01T03:17:24.460Z,19.17
2018-03-01T03:19:52.007Z,18.43
2018-03-01T03:22:19.581Z,17.13
2018-03-01T03:24:47.148Z,17.50
2018-03-01T03:27:14.736Z,17.43
2018-03-01T03:29:42.360Z,17.57
2018-03-01T03:32:09.909Z,17.07
2018-03-01T03:34:37.475Z,17.37
2018-03-01T03:37:04.995Z,17.80
2018-03-01T03:39:32.551Z,16.67
2018-03-01T03:42:00.940Z,17.20
2018-03-01T03:44:28.538Z,15.73
2018-03-01T03:46:56.074Z,17.43
2018-03-01T03:49:24.411Z,17.23
2018-03-01T03:51:52.024Z,16.60
2018-03-01T03:54:19.624Z,17.77
2018-03-01T03:56:47.164Z,17.73
2018-03-01T03:59:14.833Z,17.00
2018-03-01T04:01:42.908Z,17.30
2018-03-01T04:04:10.476Z,17.23
2018-03-01T04:06:38.011Z,16.93
2018-03-01T04:09:05.559Z,16.73
2018-03-01T04:11:33.092Z,15.20
2018-03-01T04:14:01.433Z,17.20
2018-03-01T04:16:28.993Z,16.07
2018-03-01T04:18:56.580Z,16.83
2018-03-01T04:21:24.128Z,17.10
2018-03-01T04:23:52.027Z,17.13
2018-03-01T04:26:19.728Z,16.87
2018-03-01T04:28:47.301Z,16.37
2018-03-01T04:31:14.860Z,16.70
2018-03-01T04:33:42.383Z,15.47
2018-03-01T04:36:10.996Z,16.93
2018-03-01T04:38:38.530Z,17.63
2018-03-01T04:41:06.114Z,18.20
2018-03-01T04:43:33.703Z,19.30
2018-03-01T04:46:01.401Z,16.17
2018-03-01T04:48:28.940Z,16.97
2018-03-01T04:50:56.507Z,17.10
2018-03-01T04:53:24.092Z,16.87
2018-03-01T04:55:51.656Z,16.40
2018-03-01T04:58:19.249Z,16.90
2018-03-01T05:00:46.830Z,15.60
2018-03-01T05:03:14.386Z,17.80
2018-03-01T05:05:41.949Z,16.50
2018-03-01T05:08:09.491Z,17.83
2018-03-01T05:10:37.080Z,17.23
2018-03-01T05:13:04.643Z,17.33
2018-03-01T05:15:32.172Z,15.73
2018-03-01T05:17:59.729Z,15.93
2018-03-01T05:20:27.257Z,17.23
2018-03-01T05:22:54.824Z,16.93
2018-03-01T05:25:22.367Z,16.87
2018-03-01T05:27:49.968Z,17.43
2018-03-01T05:30:17.554Z,17.50
2018-03-01T05:32:45.127Z,17.03
2018-03-01T05:35:12.737Z,16.87
2018-03-01T05:37:40.298Z,16.67
2018-03-01T05:40:07.927Z,16.33
2018-03-01T05:42:35.513Z,17.83
2018-03-01T05:45:03.062Z,16.23
2018-03-01T05:47:31.333Z,18.93
2018-03-01T05:49:58.884Z,17.10
2018-03-01T05:52:26.432Z,16.90
2018-03-01T05:54:54.015Z,18.00
2018-03-01T05:57:21.684Z,16.90
2018-03-01T05:59:49.255Z,16.80
2018-03-01T06:02:16.857Z,17.67
2018-03-01T06:04:44.402Z,17.23
2018-03-01T06:07:11.955Z,18.43
2018-03-01T06:09:39.516Z,17.30
2018-03-01T06:12:07.072Z,16.97
2018-03-01T06:14:34.655Z,17.63
2018-03-01T06:17:02.222Z,17.30
2018-03-01T06:19:29.866Z,17.43
2018-03-01T06:21:57.443Z,16.17
2018-03-01T06:24:25.003Z,16.83
2018-03-01T06:26:52.614Z,17.80
2018-03-01T06:29:20.196Z,16.27
2018-03-01T06:31:47.796Z,17.63
2018-03-01T06:34:15.356Z,17.57
2018-03-01T06:36:42.905Z,18.00
2018-03-01T06:39:10.464Z,16.50
2018-03-01T06:41:38.484Z,17.17
2018-03-01T06:44:06.027Z,16.90
2018-03-01T06:46:33.589Z,18.07
2018-03-01T06:49:01.185Z,16.50
2018-03-01T06:51:28.784Z,17.90
2018-03-01T06:53:56.350Z,18.37
2018-03-01T06:56:24.632Z,16.33
2018-03-01T06:58:52.360Z,17.63
2018-03-01T07:01:19.955Z,17.20
2018-03-01T07:03:47.498Z,17.30
2018-03-01T07:06:15.082Z,16.97
2018-03-01T07:08:42.629Z,19.33
2018-03-01T07:11:10.980Z,16.97
2018-03-01T07:13:39.355Z,16.27
2018-03-01T07:16:06.957Z,16.97
2018-03-01T07:18:34.610Z,17.33
2018-03-01T07:21:02.988Z,17.13
2018-03-01T07:23:31.708Z,17.20
2018-03-01T07:25:59.534Z,17.43
2018-03-01T07:28:27.242Z,16.80
2018-03-01T07:30:54.971Z,16.07
2018-03-01T07:33:23.378Z,17.73
2018-03-01T07:35:50.962Z,18.37
2018-03-01T07:38:18.520Z,16.33
2018-03-01T07:40:46.085Z,18.30
2018-03-01T07:43:13.662Z,17.23
2018-03-01T07:45:41.202Z,17.63
2018-03-01T07:48:08.780Z,16.93
2018-03-01T07:50:36.341Z,17.73
2018-03-01T07:53:03.985Z,17.47
2018-03-01T07:55:31.611Z,17.70
2018-03-01T07:57:59.518Z,16.70
2018-03-01T08:00:27.158Z,16.80
2018-03-01T08:02:54.846Z,16.20
2018-03-01T08:05:22.392Z,17.20
2018-03-01T08:07:49.996Z,18.33
2018-03-01T08:10:17.673Z,16.93
2018-03-01T08:12:45.240Z,17.93
2018-03-01T08:15:12.881Z,16.17
2018-03-01T08:17:41.391Z,17.53
2018-03-01T08:20:09.373Z,16.50
2018-03-01T08:22:36.914Z,17.13
2018-03-01T08:25:05.226Z,17.20
2018-03-01T08:27:32.796Z,17.97
2018-03-01T08:30:00.442Z,19.07
2018-03-01T08:32:28.004Z,17.17
2018-03-01T08:34:55.626Z,17.33
2018-03-01T08:37:23.983Z,17.73
2018-03-01T08:39:52.800Z,17.50
2018-03-01T08:42:20.435Z,17.33
2018-03-01T08:44:48.931Z,16.90
2018-03-01T08:47:16.528Z,17.47
2018-03-01T08:49:44.117Z,16.43
2018-03-01T08:52:11.926Z,17.30
2018-03-01T08:54:39.586Z,17.77
2018-03-01T08:57:07.158Z,17.53
2018-03-01T08:59:34.760Z,16.37
2018-03-01T09:02:02.414Z,17.53
2018-03-01T09:04:30.066Z,17.80
2018-03-01T09:06:57.672Z,17.40
2018-03-01T09:09:25.552Z,16.87
2018-03-01T09:11:53.185Z,18.27
2018-03-01T09:14:20.803Z,17.53
2018-03-01T09:16:48.668Z,17.27
2018-03-01T09:19:16.199Z,16.77
2018-03-01T09:21:43.766Z,17.57
2018-03-01T09:24:11.295Z,18.47
2018-03-01T09:26:38.913Z,16.93
2018-03-01T09:29:06.674Z,17.27
2018-03-01T09:31:34.316Z,16.53
2018-03-01T09:34:01.949Z,15.73
2018-03-01T09:36:29.508Z,18.90
2018-03-01T09:38:57.207Z,17.03
2018-03-01T09:41:24.907Z,20.10
2018-03-01T09:43:52.541Z,17.27
2018-03-01T09:46:20.149Z,17.57
2018-03-01T09:48:47.717Z,17.27
2018-03-01T09:51:15.363Z,17.13
2018-03-01T09:53:42.962Z,18.23
2018-03-01T09:56:10.528Z,18.53
2018-03-01T09:58:38.107Z,19.17
2018-03-01T10:01:06.292Z,18.07
2018-03-01T10:03:34.010Z,15.63
2018-03-01T10:06:01.658Z,18.10
2018-03-01T10:08:30.025Z,17.20
2018-03-01T10:10:57.715Z,17.20
2018-03-01T10:13:25.585Z,17.40
2018-03-01T10:15:53.956Z,17.73
2018-03-01T10:18:22.259Z,16.87
2018-03-01T10:20:49.865Z,18.10
2018-03-01T10:23:17.482Z,18.27
2018-03-01T10:25:45.108Z,17.87
2018-03-01T10:28:12.698Z,17.87
2018-03-01T10:30:40.289Z,16.60
2018-03-01T10:33:08.670Z,17.43
2018-03-01T10:35:36.535Z,17.80
2018-03-01T10:38:04.148Z,18.13
2018-03-01T10:40:32.812Z,16.63
2018-03-01T10:43:00.515Z,16.17
2018-03-01T10:45:28.103Z,17.17
2018-03-01T10:47:55.667Z,18.17
2018-03-01T10:50:23.260Z,16.03
2018-03-01T10:52:51.768Z,16.40
2018-03-01T10:55:19.318Z,16.00
2018-03-01T10:57:47.027Z,17.00
2018-03-01T11:00:20.168Z,17.93
2018-03-01T11:02:48.497Z,16.83
2018-03-01T11:05:16.035Z,17.43
2018-03-01T11:07:43.736Z,17.20
2018-03-01T11:10:11.339Z,17.17
2018-03-01T11:12:38.916Z,17.53
2018-03-01T11:15:06.666Z,17.80
2018-03-01T11:17:34.372Z,19.07
2018-03-01T11:20:02.001Z,15.83
2018-03-01T11:22:29.780Z,17.53
2018-03-01T11:24:57.402Z,18.03
2018-03-01T11:27:24.967Z,16.97
2018-03-01T11:29:53.696Z,17.83
2018-03-01T11:32:21.296Z,17.63
2018-03-01T11:34:49.325Z,18.13
2018-03-01T11:37:16.870Z,18.17
2018-03-01T11:39:45.517Z,18.23
2018-03-01T11:42:13.102Z,18.50
2018-03-01T11:44:40.659Z,18.47
2018-03-01T11:47:08.228Z,17.10
2018-03-01T11:49:35.789Z,17.00
2018-03-01T11:52:03.391Z,18.43
2018-03-01T11:54:30.951Z,16.67
2018-03-01T11:56:58.657Z,19.00
2018-03-01T11:59:26.287Z,20.10
2018-03-01T12:01:53.979Z,18.20
2018-03-01T12:04:22.318Z,18.13
2018-03-01T12:06:49.862Z,17.77
2018-03-01T12:09:17.630Z,16.13
2018-03-01T12:11:45.704Z,17.57
2018-03-01T12:14:13.324Z,17.33
2018-03-01T12:16:40.883Z,17.47
2018-03-01T12:19:09.275Z,16.73
2018-03-01T12:21:36.981Z,18.33
2018-03-01T12:24:04.588Z,17.63
2018-03-01T12:26:32.141Z,17.47
2018-03-01T12:28:59.715Z,17.63
2018-03-01T12:31:27.416Z,17.77
2018-03-01T12:33:54.968Z,16.80
2018-03-01T12:36:22.503Z,17.80
2018-03-01T12:38:50.044Z,17.47
2018-03-01T12:41:17.723Z,17.80
2018-03-01T12:43:45.307Z,16.70
2018-03-01T12:46:12.847Z,17.17
2018-03-01T12:48:40.415Z,17.10
2018-03-01T12:51:08.017Z,17.63
2018-03-01T12:53:35.606Z,17.73
2018-03-01T12:56:03.180Z,18.77
2018-03-01T12:58:30.737Z,18.07
2018-03-01T13:00:58.442Z,18.20
2018-03-01T13:03:26.156Z,17.67
2018-03-01T13:05:53.757Z,18.00
2018-03-01T13:08:21.300Z,18.60
2018-03-01T13:10:48.941Z,19.33
2018-03-01T13:13:16.505Z,17.43
2018-03-01T13:15:44.549Z,16.70
2018-03-01T13:18:12.122Z,17.57
2018-03-01T13:20:39.751Z,17.83
2018-03-01T13:23:07.304Z,18.80
2018-03-01T13:25:35.016Z,17.20
2018-03-01T13:28:02.559Z,18.03
2018-03-01T13:33:40.962Z,17.67
2018-03-01T13:36:08.683Z,16.83
2018-03-01T13:38:36.964Z,16.30
2018-03-01T13:41:04.616Z,16.07
2018-03-01T13:43:49.006Z,15.97
2018-03-01T13:46:16.621Z,18.43
2018-03-01T13:48:44.188Z,19.60
2018-03-01T13:51:11.827Z,16.93
2018-03-01T13:53:42.373Z,18.23
2018-03-01T13:56:10.045Z,16.40
2018-03-01T13:58:37.602Z,16.37
2018-03-01T14:01:05.398Z,15.53
2018-03-01T14:03:33.016Z,17.70
2018-03-01T14:09:08.877Z,18.20
2018-03-01T14:11:36.591Z,17.03
2018-03-01T14:14:05.820Z,15.73
2018-03-01T14:16:33.391Z,19.10
2018-03-01T14:19:02.425Z,17.50
2018-03-01T14:21:35.591Z,17.70
2018-03-01T14:24:05.640Z,17.00
2018-03-01T14:26:35.712Z,17.20
2018-03-01T14:29:18.136Z,17.90
2018-03-01T14:31:45.872Z,17.30
2018-03-01T14:34:16.956Z,17.00
2018-03-01T14:36:44.583Z,16.80
2018-03-01T14:39:12.175Z,16.47
2018-03-01T14:41:39.850Z,16.40
2018-03-01T14:44:07.434Z,18.67
2018-03-01T14:46:35.593Z,16.90
2018-03-01T14:49:03.374Z,16.63
2018-03-01T14:51:31.476Z,16.80
2018-03-01T14:53:59.019Z,18.37
2018-03-01T14:56:26.580Z,17.60
2018-03-01T14:58:54.125Z,18.03
2018-03-01T15:01:24.608Z,16.80
2018-03-01T15:03:52.536Z,16.60
2018-03-01T15:06:20.689Z,17.57
2018-03-01T15:08:49.175Z,16.80
2018-03-01T15:11:16.726Z,18.53
2018-03-01T15:13:44.278Z,16.90
2018-03-01T15:16:11.859Z,18.33
2018-03-01T15:18:39.435Z,17.90
2018-03-01T15:21:07.067Z,17.63
2018-03-01T15:23:35.580Z,17.00
2018-03-01T15:26:03.169Z,17.00
2018-03-01T15:28:30.780Z,17.90
2018-03-01T15:30:58.464Z,17.20
2018-03-01T15:33:26.028Z,16.83
2018-03-01T15:35:54.159Z,16.87
2018-03-01T15:38:21.784Z,18.67
2018-03-01T15:40:49.321Z,17.77
2018-03-01T15:43:16.913Z,17.37
2018-03-01T15:45:44.458Z,18.90
2018-03-01T15:48:12.021Z,18.40
2018-03-01T15:50:39.640Z,17.97
2018-03-01T15:53:08.608Z,18.23
2018-03-01T15:55:37.095Z,16.67
2018-03-01T15:58:04.671Z,17.00
2018-03-01T16:00:32.616Z,18.33
2018-03-01T16:03:00.709Z,18.13
2018-03-01T16:05:28.301Z,18.80
2018-03-01T16:07:55.833Z,16.63
2018-03-01T16:10:23.481Z,18.67
2018-03-01T16:12:51.016Z,18.00
2018-03-01T16:15:18.588Z,18.53
2018-03-01T16:17:46.169Z,17.80
2018-03-01T16:20:13.732Z,18.27
2018-03-01T16:22:41.528Z,19.77
2018-03-01T16:25:09.151Z,19.07
2018-03-01T16:27:36.696Z,18.57
2018-03-01T16:30:04.307Z,18.47
2018-03-01T16:32:31.852Z,18.23
2018-03-01T16:34:59.451Z,19.40
2018-03-01T16:37:27.076Z,17.93
2018-03-01T16:39:54.673Z,19.07
2018-03-01T16:42:22.264Z,18.23
2018-03-01T16:44:49.981Z,19.13
2018-03-01T16:47:17.516Z,19.70
2018-03-01T16:49:45.180Z,20.27
2018-03-01T16:52:12.709Z,19.30
2018-03-01T16:54:40.359Z,20.63
2018-03-01T16:57:07.907Z,20.23
2018-03-01T16:59:36.267Z,20.53
2018-03-01T17:02:04.638Z,20.10
2018-03-01T17:04:33.168Z,20.13
2018-03-01T17:07:00.695Z,21.03
2018-03-01T17:09:28.252Z,20.33
2018-03-01T17:11:55.776Z,19.30
2018-03-01T17:14:23.527Z,21.07
2018-03-01T17:16:51.140Z,19.20
2018-03-01T17:19:18.730Z,17.77
2018-03-01T17:21:46.315Z,18.73
2018-03-01T17:24:14.006Z,21.03
2018-03-01T17:26:41.543Z,19.57
2018-03-01T17:29:09.177Z,19.17
2018-03-01T17:31:36.706Z,21.20
2018-03-01T17:34:04.254Z,19.97
2018-03-01T17:36:31.812Z,20.43
2018-03-01T17:38:59.372Z,20.40
2018-03-01T17:41:26.989Z,19.77
2018-03-01T17:43:54.551Z,20.70
2018-03-01T17:46:22.156Z,21.10
2018-03-01T17:48:49.694Z,20.13
2018-03-01T17:51:17.250Z,19.80
2018-03-01T17:53:44.813Z,22.37
2018-03-01T17:56:12.464Z,22.07
2018-03-01T17:58:40.057Z,21.73
2018-03-01T18:01:07.618Z,20.77
2018-03-01T18:03:35.192Z,21.87
2018-03-01T18:06:02.710Z,21.00
2018-03-01T18:08:30.320Z,18.93
2018-03-01T18:10:58.684Z,20.13
2018-03-01T18:13:27.009Z,21.60
2018-03-01T18:15:54.590Z,18.80
2018-03-01T18:18:22.131Z,20.03
2018-03-01T18:20:50.745Z,20.10
2018-03-01T18:23:18.375Z,21.40
2018-03-01T18:25:45.930Z,19.87
2018-03-01T18:28:13.493Z,22.03
2018-03-01T18:30:41.052Z,21.20
2018-03-01T18:33:08.590Z,21.10
2018-03-01T18:35:36.174Z,20.70
2018-03-01T18:38:03.768Z,21.23
2018-03-01T18:40:31.292Z,20.10
2018-03-01T18:42:58.873Z,20.03
2018-03-01T18:45:26.552Z,20.50
2018-03-01T18:47:54.111Z,20.53
2018-03-01T18:50:21.654Z,20.20
2018-03-01T18:52:49.215Z,19.53
2018-03-01T18:55:16.778Z,21.00
2018-03-01T18:57:44.328Z,20.87
2018-03-01T19:00:11.875Z,20.27
2018-03-01T19:02:39.405Z,21.50
2018-03-01T19:05:07.097Z,20.90
2018-03-01T19:07:34.713Z,20.97
2018-03-01T19:10:02.272Z,21.37
2018-03-01T19:12:30.564Z,21.73
2018-03-01T19:14:58.123Z,20.70
2018-03-01T19:17:26.431Z,22.10
2018-03-01T19:19:53.993Z,21.90
2018-03-01T19:22:21.763Z,20.90
2018-03-01T19:24:49.283Z,21.23
2018-03-01T19:27:16.836Z,20.50
2018-03-01T19:29:44.575Z,20.27
2018-03-01T19:32:12.097Z,22.30
2018-03-01T19:34:39.728Z,21.40
2018-03-01T19:37:07.768Z,21.17
2018-03-01T19:39:35.409Z,22.80
2018-03-01T19:42:03.049Z,22.73
2018-03-01T19:44:30.596Z,22.63
2018-03-01T19:46:58.231Z,20.53
2018-03-01T19:49:25.839Z,23.67
2018-03-01T19:51:53.416Z,21.83
2018-03-01T19:54:20.938Z,22.70
2018-03-01T19:56:48.522Z,22.10
2018-03-01T19:59:16.097Z,22.20
2018-03-01T20:01:43.661Z,22.03
2018-03-01T20:04:11.319Z,22.30
2018-03-01T20:06:38.879Z,23.93
2018-03-01T20:09:06.436Z,22.07
2018-03-01T20:11:34.012Z,23.13
2018-03-01T20:14:01.564Z,21.23
2018-03-01T20:16:29.127Z,22.73
2018-03-01T20:18:56.760Z,23.23
2018-03-01T20:21:24.278Z,21.60
2018-03-01T20:23:51.878Z,23.43
2018-03-01T20:26:19.480Z,22.77
2018-03-01T20:28:47.031Z,22.67
2018-03-01T20:31:14.560Z,22.77
2018-03-01T20:33:42.126Z,21.83
2018-03-01T20:36:09.770Z,24.03
2018-03-01T20:38:37.300Z,23.93
2018-03-01T20:41:04.876Z,22.30
2018-03-01T20:43:32.693Z,23.67
2018-03-01T20:46:00.269Z,23.50
2018-03-01T20:48:27.829Z,25.03
2018-03-01T20:50:55.372Z,25.27
2018-03-01T20:53:22.984Z,24.43
2018-03-01T20:55:50.543Z,25.57
2018-03-01T20:58:18.080Z,23.90
2018-03-01T21:00:46.445Z,23.67
2018-03-01T21:03:14.032Z,24.57
2018-03-01T21:05:41.568Z,24.53
2018-03-01T21:08:09.175Z,24.17
2018-03-01T21:10:36.713Z,24.53
2018-03-01T21:13:04.517Z,24.03
2018-03-01T21:15:32.085Z,23.97
2018-03-01T21:17:59.658Z,23.53
2018-03-01T21:20:27.233Z,24.57
2018-03-01T21:22:55.306Z,24.13
2018-03-01T21:25:22.916Z,25.03
2018-03-01T21:27:50.461Z,24.77
2018-03-01T21:30:18.034Z,24.97
2018-03-01T21:32:45.586Z,26.97
2018-03-01T21:35:13.140Z,24.57
2018-03-01T21:37:40.741Z,25.27
2018-03-01T21:40:08.312Z,26.07
2018-03-01T21:42:35.840Z,24.40
2018-03-01T21:45:03.371Z,24.67
2018-03-01T21:47:30.982Z,25.10
2018-03-01T21:49:58.515Z,25.63
2018-03-01T21:52:26.077Z,25.37
2018-03-01T21:54:53.633Z,24.83
2018-03-01T21:57:21.192Z,26.13
2018-03-01T21:59:49.660Z,26.23
2018-03-01T22:02:17.186Z,26.13
2018-03-01T22:04:45.512Z,25.27
2018-03-01T22:07:13.074Z,24.67
2018-03-01T22:09:40.659Z,25.73
2018-03-01T22:12:08.211Z,25.40
2018-03-01T22:14:35.786Z,26.17
2018-03-01T22:17:03.342Z,27.80
2018-03-01T22:19:30.913Z,26.77
2018-03-01T22:21:58.567Z,27.43
2018-03-01T22:24:26.127Z,27.13
2018-03-01T22:26:53.703Z,27.13
2018-03-01T22:29:21.327Z,26.73
2018-03-01T22:31:48.932Z,28.77
2018-03-01T22:34:16.490Z,26.67
2018-03-01T22:36:44.052Z,27.37
2018-03-01T22:39:13.295Z,27.70
2018-03-01T22:41:40.829Z,29.40
2018-03-01T22:44:08.357Z,27.10
2018-03-01T22:46:35.975Z,28.73
2018-03-01T22:49:03.762Z,28.23
2018-03-01T22:51:31.345Z,27.60
2018-03-01T22:53:58.924Z,28.43
2018-03-01T22:56:26.465Z,28.27
2018-03-01T22:58:54.097Z,28.33
2018-03-01T23:01:21.638Z,25.80
2018-03-01T23:03:49.168Z,27.63
2018-03-01T23:06:17.495Z,27.13
2018-03-01T23:08:45.059Z,28.33
2018-03-01T23:11:12.604Z,28.40
2018-03-01T23:13:40.155Z,28.70
2018-03-01T23:16:07.705Z,27.83
2018-03-01T23:18:35.286Z,26.20
2018-03-01T23:21:02.883Z,29.03
2018-03-01T23:23:30.445Z,27.53
2018-03-01T23:25:58.001Z,27.67
2018-03-01T23:28:25.566Z,28.33
2018-03-01T23:30:53.911Z,29.23
2018-03-01T23:33:21.488Z,28.47
2018-03-01T23:35:49.023Z,28.87
2018-03-01T23:38:16.586Z,29.17
2018-03-01T23:40:44.239Z,28.77
2018-03-01T23:43:11.814Z,28.77
2018-03-01T23:45:39.351Z,28.00
2018-03-01T23:48:06.936Z,26.70
2018-03-01T23:50:34.474Z,28.10
2018-03-01T23:53:02.009Z,26.70
2018-03-01T23:55:29.568Z,28.73
2018-03-01T23:57:57.127Z,28.83
